Cocoa Beach, FL

05:31 EST le 24 février 2017 (GMT -0500)
Cocoa Beach | | Change Station

Alt. 10 ft 28.32 °N, 80.62 °W | Updated 10 seconds ago

Partiellement nuageux
Partiellement nuageux
69.1 ° F
Paraît 69.1 ° F
N
2.7
Vent Variable Vent de NE
Gusts 4.9 mph

Aujourd'hui
Haut(e) -- | Bas -- ° F
--% Risque de précip.
Hier
Haut(e) -- | Bas -- ° F
Precip. -- pouce
Pression 29.73 pouce
Visibilité 10.0 Miles terrestres
Nuages Ciel dégagé
Point de rosée 69 ° F
Humidité 99%
Précipitations 0.00 pouce
Profondeur de la couche neigeuse Non disponible.
6:51 AM 6:19 PM
Lune descendante, 5% visible
METAR KCOF 240958Z AUTO 32009KT 10SM CLR 20/20 A2972 RMK AO2 SLP068 T01980196
Pression 29.73 pouce
Visibilité 10.0 Miles terrestres
Nuages Ciel dégagé
Point de rosée 69 ° F
Humidité 99%
Précipitations 0.00 pouce
Profondeur de la couche neigeuse Non disponible.
6:51 AM 6:19 PM
Lune descendante, 5% visible
METAR KCOF 240958Z AUTO 32009KT 10SM CLR 20/20 A2972 RMK AO2 SLP068 T01980196

Get Your Daily Forecast Email!

Thanks for signing up!

Be on the lookout for a verification email in your inbox.

You'll start receiving the daily forecast at 8 AM.

×

10-Day Weather Forecast

Almanac

Astronomie

Feb. 24, 2017 Lever Coucher
Temps réel
Crépuscule civil
Crépuscule nautique
Crépuscule astronomique
Lune
Durée de lumière visible
Longueur du jour
Tomorrow will be .
, % of the Moon is Illuminated

Extrêmes aujourd'hui

State Highs State Lows

Community

WunderPhotos

Upload Photos

1,962,540 Photos téléchargées !

WunderBlog® & News

Nearby

Qualité de l'air

  Qualité de l'air Indice de la qualité de l'air Polluant
Not available.

Épaisseur de neige

Station Depth Altitude

Activité sismique

Ville Distance Mag. Time & Date
Minimum magnitude displayed is 2.5.

Températures des eaux côtières

Lieu Température

Stations

Stations météo à proximité

Emplacement de la station Température Refroidissement éolien Point de rosée Humidité Vent Precip. Alt. Mise à jour Type
                   

Watches & Warnings

There are currently no watches in effect.